createdAt,value
2023-05-02T00:00:13.613Z,0.65
2023-05-02T00:02:42.673Z,0.80
2023-05-02T00:05:11.139Z,0.70
2023-05-02T00:07:39.469Z,1.08
2023-05-02T00:10:09.048Z,1.00
2023-05-02T00:12:37.321Z,0.82
2023-05-02T00:15:06.051Z,1.08
2023-05-02T00:17:34.375Z,0.82
2023-05-02T00:20:02.762Z,0.70
2023-05-02T00:22:31.109Z,1.42
2023-05-02T00:24:59.639Z,0.82
2023-05-02T00:27:27.793Z,0.80
2023-05-02T00:29:56.123Z,0.70
2023-05-02T00:32:24.488Z,0.82
2023-05-02T00:34:52.746Z,1.00
2023-05-02T00:37:21.420Z,0.95
2023-05-02T00:39:49.565Z,1.10
2023-05-02T00:42:17.877Z,0.90
2023-05-02T00:44:47.479Z,1.10
2023-05-02T00:47:16.864Z,0.93
2023-05-02T00:49:45.046Z,1.92
2023-05-02T00:52:13.538Z,1.42
2023-05-02T00:54:42.471Z,0.95
2023-05-02T00:57:10.686Z,0.82
2023-05-02T00:59:39.350Z,0.82
2023-05-02T01:02:24.245Z,1.20
2023-05-02T01:08:03.734Z,1.10
2023-05-02T01:11:28.907Z,0.68
2023-05-02T01:14:00.677Z,1.20
2023-05-02T01:16:29.878Z,0.93
2023-05-02T01:19:00.657Z,0.82
2023-05-02T01:21:29.823Z,1.10
2023-05-02T01:24:30.510Z,1.33
2023-05-02T01:26:59.401Z,1.02
2023-05-02T01:29:30.904Z,0.90
2023-05-02T01:32:02.129Z,0.75
2023-05-02T01:34:32.530Z,0.90
2023-05-02T01:37:02.646Z,0.85
2023-05-02T01:39:32.225Z,0.77
2023-05-02T01:42:04.417Z,1.10
2023-05-02T01:44:36.691Z,0.70
2023-05-02T01:47:08.028Z,1.05
2023-05-02T01:49:37.823Z,0.60
2023-05-02T01:52:12.324Z,0.85
2023-05-02T01:54:42.610Z,0.90
2023-05-02T01:57:12.724Z,0.70
2023-05-02T01:59:43.527Z,0.70
2023-05-02T02:02:15.109Z,0.80
2023-05-02T02:04:45.139Z,0.70
2023-05-02T02:07:15.572Z,0.63
2023-05-02T02:09:44.025Z,0.52
2023-05-02T02:12:53.809Z,0.85
2023-05-02T02:15:29.184Z,0.65
2023-05-02T02:18:11.182Z,0.70
2023-05-02T02:20:43.947Z,0.60
2023-05-02T02:23:14.561Z,0.55
2023-05-02T02:25:45.059Z,0.90
2023-05-02T02:28:13.753Z,0.80
2023-05-02T02:30:42.262Z,0.90
2023-05-02T02:33:10.464Z,0.65
2023-05-02T02:35:53.608Z,0.60
2023-05-02T02:38:39.014Z,0.70
2023-05-02T02:41:29.222Z,0.80
2023-05-02T02:44:35.534Z,0.98
2023-05-02T02:47:22.461Z,0.80
2023-05-02T02:50:24.190Z,0.95
2023-05-02T02:52:59.623Z,1.20
2023-05-02T02:56:07.113Z,0.95
2023-05-02T02:58:58.385Z,1.27
2023-05-02T03:01:32.232Z,0.68
2023-05-02T03:04:02.005Z,0.90
2023-05-02T03:06:30.747Z,1.10
2023-05-02T03:08:59.574Z,0.77
2023-05-02T03:11:28.978Z,1.05
2023-05-02T03:13:57.730Z,0.80
2023-05-02T03:16:42.515Z,1.42
2023-05-02T03:19:10.817Z,0.85
2023-05-02T03:21:39.001Z,1.08
2023-05-02T03:24:07.421Z,0.93
2023-05-02T03:26:35.635Z,1.08
2023-05-02T03:29:04.079Z,0.90
2023-05-02T03:31:32.331Z,1.13
2023-05-02T03:34:00.576Z,1.25
2023-05-02T03:36:28.790Z,1.13
2023-05-02T03:38:57.289Z,1.13
2023-05-02T03:41:28.204Z,1.05
2023-05-02T03:43:56.879Z,1.23
2023-05-02T03:46:25.499Z,0.80
2023-05-02T03:48:53.828Z,0.70
2023-05-02T03:51:22.092Z,0.80
2023-05-02T03:53:50.278Z,1.00
2023-05-02T03:56:21.624Z,0.90
2023-05-02T03:58:50.479Z,0.90
2023-05-02T04:01:18.831Z,1.00
2023-05-02T04:03:47.594Z,0.80
2023-05-02T04:06:15.844Z,0.70
2023-05-02T04:08:44.290Z,1.27
2023-05-02T04:11:12.492Z,0.80
2023-05-02T04:13:40.736Z,0.52
2023-05-02T04:16:10.110Z,0.80
2023-05-02T04:18:38.558Z,0.95
2023-05-02T04:21:10.513Z,0.60
2023-05-02T04:23:38.809Z,1.15
2023-05-02T04:26:07.440Z,1.00
2023-05-02T04:28:37.015Z,0.73
2023-05-02T04:31:05.468Z,0.85
2023-05-02T04:33:33.623Z,1.02
2023-05-02T04:36:02.068Z,0.70
2023-05-02T04:38:30.237Z,1.00
2023-05-02T04:40:58.424Z,0.90
2023-05-02T04:43:26.831Z,1.08
2023-05-02T04:45:55.091Z,0.60
2023-05-02T04:48:23.452Z,1.15
2023-05-02T04:50:51.811Z,1.02
2023-05-02T04:53:20.037Z,1.10
2023-05-02T04:55:48.654Z,0.70
2023-05-02T04:58:17.235Z,0.70
2023-05-02T05:00:45.715Z,0.70
2023-05-02T05:03:13.957Z,1.02
2023-05-02T05:05:42.226Z,1.08
2023-05-02T05:08:10.755Z,0.80
2023-05-02T05:10:39.044Z,0.73
2023-05-02T05:13:07.917Z,0.93
2023-05-02T05:15:36.170Z,0.93
2023-05-02T05:18:04.426Z,0.88
2023-05-02T05:20:32.664Z,1.05
2023-05-02T05:23:01.052Z,0.85
2023-05-02T05:25:29.570Z,0.90
2023-05-02T05:27:57.920Z,0.80
2023-05-02T05:30:26.325Z,0.82
2023-05-02T05:32:54.627Z,0.95
2023-05-02T05:35:22.843Z,1.05
2023-05-02T05:37:50.969Z,0.75
2023-05-02T05:40:19.208Z,0.85
2023-05-02T05:42:47.641Z,0.90
2023-05-02T05:45:17.910Z,0.75
2023-05-02T05:47:46.475Z,0.88
2023-05-02T05:50:14.652Z,0.45
2023-05-02T05:52:42.805Z,0.82
2023-05-02T05:55:11.397Z,0.63
2023-05-02T05:57:40.005Z,1.10
2023-05-02T06:00:09.080Z,0.98
2023-05-02T06:02:37.347Z,0.82
2023-05-02T06:05:05.824Z,1.10
2023-05-02T06:07:34.000Z,0.88
2023-05-02T06:10:02.402Z,0.80
2023-05-02T06:12:31.956Z,0.85
2023-05-02T06:15:00.194Z,0.70
2023-05-02T06:17:28.398Z,0.52
2023-05-02T06:19:56.875Z,0.52
2023-05-02T06:22:25.079Z,1.02
2023-05-02T06:24:53.327Z,0.80
2023-05-02T06:27:21.528Z,0.80
2023-05-02T06:29:52.854Z,0.93
2023-05-02T06:32:21.199Z,0.63
2023-05-02T06:34:49.405Z,0.73
2023-05-02T06:37:17.619Z,0.50
2023-05-02T06:39:46.049Z,0.82
2023-05-02T06:42:14.217Z,0.57
2023-05-02T06:44:42.391Z,0.63
2023-05-02T06:47:10.687Z,0.70
2023-05-02T06:49:38.928Z,0.90
2023-05-02T06:52:07.154Z,0.50
2023-05-02T06:54:35.332Z,1.05
2023-05-02T06:57:03.743Z,0.60
2023-05-02T06:59:32.207Z,0.57
2023-05-02T07:02:00.817Z,0.40
2023-05-02T07:04:29.725Z,0.77
2023-05-02T07:06:57.923Z,0.55
2023-05-02T07:09:26.175Z,0.57
2023-05-02T07:11:54.360Z,0.60
2023-05-02T07:14:22.725Z,0.88
2023-05-02T07:16:50.983Z,0.70
2023-05-02T07:19:19.166Z,0.60
2023-05-02T07:21:47.746Z,0.35
2023-05-02T07:24:15.913Z,0.70
2023-05-02T07:26:44.187Z,0.88
2023-05-02T07:29:12.457Z,0.70
2023-05-02T07:31:40.687Z,0.63
2023-05-02T07:34:08.918Z,0.50
2023-05-02T07:36:37.063Z,0.63
2023-05-02T07:39:05.319Z,0.73
2023-05-02T07:41:33.468Z,0.80
2023-05-02T07:44:01.676Z,0.57
2023-05-02T07:46:29.934Z,0.60
2023-05-02T07:48:58.113Z,0.50
2023-05-02T07:51:27.645Z,0.63
2023-05-02T07:53:59.252Z,0.43
2023-05-02T07:56:27.460Z,0.55
2023-05-02T07:58:56.106Z,0.40
2023-05-02T08:01:24.288Z,0.55
2023-05-02T08:03:53.010Z,0.60
2023-05-02T08:06:21.390Z,0.57
2023-05-02T08:08:49.566Z,0.40
2023-05-02T08:11:17.737Z,0.28
2023-05-02T08:13:45.899Z,0.45
2023-05-02T08:16:14.446Z,0.40
2023-05-02T08:18:42.591Z,0.50
2023-05-02T08:21:11.588Z,0.20
2023-05-02T08:23:39.997Z,0.32
2023-05-02T08:26:08.148Z,0.30
2023-05-02T08:28:36.461Z,0.30
2023-05-02T08:31:04.700Z,0.20
2023-05-02T08:33:32.940Z,0.32
2023-05-02T08:36:01.192Z,0.50
2023-05-02T08:38:29.338Z,0.40
2023-05-02T08:40:57.571Z,0.50
2023-05-02T08:43:25.862Z,0.40
2023-05-02T08:45:55.401Z,0.28
2023-05-02T08:48:24.255Z,0.40
2023-05-02T08:50:55.084Z,0.20
2023-05-02T08:53:25.178Z,0.30
2023-05-02T08:55:53.810Z,0.35
2023-05-02T08:58:22.202Z,0.30
2023-05-02T09:00:52.904Z,0.30
2023-05-02T09:03:32.327Z,0.38
2023-05-02T09:06:15.512Z,0.40
2023-05-02T09:08:45.390Z,0.40
2023-05-02T09:11:14.615Z,0.50
2023-05-02T09:13:50.567Z,0.68
2023-05-02T09:16:27.806Z,0.50
2023-05-02T09:18:58.727Z,0.60
2023-05-02T09:21:41.086Z,0.52
2023-05-02T09:24:20.977Z,0.60
2023-05-02T09:27:18.292Z,0.40
2023-05-02T09:29:48.123Z,0.50
2023-05-02T09:32:16.336Z,0.47
2023-05-02T09:35:07.874Z,0.60
2023-05-02T09:37:36.678Z,0.57
2023-05-02T09:40:08.604Z,0.68
2023-05-02T09:42:37.321Z,0.57
2023-05-02T09:45:05.873Z,0.40
2023-05-02T09:47:34.102Z,0.60
2023-05-02T09:50:02.409Z,0.77
2023-05-02T09:52:30.593Z,0.40
2023-05-02T09:54:58.833Z,0.40
2023-05-02T09:57:44.903Z,0.40
2023-05-02T10:00:15.729Z,0.63
2023-05-02T10:02:44.542Z,0.40
2023-05-02T10:05:14.394Z,0.57
2023-05-02T10:07:42.817Z,0.50
2023-05-02T10:10:18.656Z,0.47
2023-05-02T10:12:49.166Z,0.50
2023-05-02T10:15:19.997Z,0.30
2023-05-02T10:17:52.110Z,0.45
2023-05-02T10:20:25.157Z,0.47
2023-05-02T10:22:57.106Z,0.40
2023-05-02T10:25:25.491Z,0.50
2023-05-02T10:27:54.217Z,0.40
2023-05-02T10:30:23.207Z,0.40
2023-05-02T10:32:54.780Z,0.40
2023-05-02T10:35:24.191Z,0.38
2023-05-02T10:37:52.945Z,0.32
2023-05-02T10:40:21.168Z,0.40
2023-05-02T10:42:52.417Z,0.50
2023-05-02T10:45:34.594Z,0.50
2023-05-02T10:48:23.382Z,0.50
2023-05-02T10:50:54.361Z,0.40
2023-05-02T10:53:41.148Z,1.20
2023-05-02T10:56:17.391Z,0.45
2023-05-02T10:58:47.105Z,1.00
2023-05-02T11:01:28.138Z,0.80
2023-05-02T11:04:03.542Z,0.50
2023-05-02T11:06:36.947Z,0.25
2023-05-02T11:09:26.011Z,0.30
2023-05-02T11:11:55.774Z,0.40
2023-05-02T11:14:27.020Z,0.30
2023-05-02T11:17:13.244Z,0.30
2023-05-02T11:19:47.507Z,0.43
2023-05-02T11:22:21.793Z,0.57
2023-05-02T11:24:51.003Z,0.30
2023-05-02T11:27:31.525Z,0.47
2023-05-02T11:30:07.541Z,0.47
2023-05-02T11:32:49.760Z,0.30
2023-05-02T11:35:23.755Z,0.60
2023-05-02T11:38:04.038Z,0.40
2023-05-02T11:40:33.427Z,0.68
2023-05-02T11:43:02.552Z,0.60
2023-05-02T11:45:37.766Z,0.40
2023-05-02T11:48:10.466Z,0.38
2023-05-02T11:50:51.468Z,0.50
2023-05-02T11:53:25.743Z,0.70
2023-05-02T11:55:56.312Z,0.55
2023-05-02T11:58:27.002Z,0.68
2023-05-02T12:00:55.378Z,1.17
2023-05-02T12:03:26.461Z,0.90
2023-05-02T12:05:54.958Z,1.15
2023-05-02T12:08:30.672Z,0.80
2023-05-02T12:10:58.980Z,0.82
2023-05-02T12:13:27.859Z,1.05
2023-05-02T12:15:57.110Z,1.10
2023-05-02T12:18:27.925Z,0.90
2023-05-02T12:20:57.564Z,0.93
2023-05-02T12:23:29.619Z,0.80
2023-05-02T12:25:59.738Z,0.80
2023-05-02T12:28:28.100Z,1.00
2023-05-02T12:30:56.482Z,0.80
2023-05-02T12:33:24.824Z,0.80
2023-05-02T12:35:54.765Z,0.90
2023-05-02T12:38:23.647Z,0.70
2023-05-02T12:40:58.360Z,1.27
2023-05-02T12:46:11.401Z,0.90
2023-05-02T12:48:39.534Z,0.80
2023-05-02T12:51:08.189Z,0.70
2023-05-02T12:53:41.405Z,0.88
2023-05-02T12:56:09.892Z,0.60
2023-05-02T12:58:55.817Z,0.95
2023-05-02T13:01:23.980Z,0.52
2023-05-02T13:03:52.417Z,0.60
2023-05-02T13:06:20.663Z,0.55
2023-05-02T13:08:48.935Z,0.60
2023-05-02T13:11:17.081Z,0.52
2023-05-02T13:13:45.462Z,0.70
2023-05-02T13:16:13.750Z,0.77
2023-05-02T13:18:42.231Z,0.52
2023-05-02T13:21:10.769Z,0.90
2023-05-02T13:23:40.682Z,0.75
2023-05-02T13:26:08.841Z,0.70
2023-05-02T13:28:38.225Z,0.70
2023-05-02T13:31:06.883Z,0.80
2023-05-02T13:33:35.101Z,0.68
2023-05-02T13:36:03.250Z,0.60
2023-05-02T13:38:31.580Z,0.68
2023-05-02T13:40:59.747Z,0.60
2023-05-02T13:43:28.423Z,0.80
2023-05-02T13:45:56.832Z,0.90
2023-05-02T13:48:26.165Z,0.73
2023-05-02T13:50:54.352Z,0.80
2023-05-02T13:53:22.487Z,0.60
2023-05-02T13:55:50.649Z,0.82
2023-05-02T13:58:18.829Z,0.80
2023-05-02T14:00:48.123Z,0.77
2023-05-02T14:03:16.873Z,0.50
2023-05-02T14:05:45.225Z,1.00
2023-05-02T14:08:18.887Z,0.65
2023-05-02T14:10:47.179Z,1.03
2023-05-02T14:13:15.349Z,1.00
2023-05-02T14:15:43.500Z,1.00
2023-05-02T14:18:11.871Z,0.82
2023-05-02T14:20:40.137Z,0.82
2023-05-02T14:23:08.612Z,0.88
2023-05-02T14:25:39.777Z,0.80
2023-05-02T14:28:07.951Z,0.90
2023-05-02T14:30:36.761Z,1.00
2023-05-02T14:33:05.030Z,0.95
2023-05-02T14:35:33.378Z,1.02
2023-05-02T14:38:02.043Z,0.90
2023-05-02T14:40:30.210Z,0.60
2023-05-02T14:42:58.545Z,0.73
2023-05-02T14:45:27.528Z,0.77
2023-05-02T14:47:56.735Z,0.60
2023-05-02T14:50:25.437Z,0.82
2023-05-02T14:52:53.611Z,0.80
2023-05-02T14:55:21.806Z,0.85
2023-05-02T14:57:49.968Z,0.75
2023-05-02T15:00:18.594Z,0.70
2023-05-02T15:02:46.915Z,0.60
2023-05-02T15:05:15.221Z,0.63
2023-05-02T15:07:43.397Z,1.38
2023-05-02T15:10:11.848Z,0.47
2023-05-02T15:12:40.053Z,0.40
2023-05-02T15:15:09.949Z,0.60
2023-05-02T15:17:38.171Z,0.40
2023-05-02T15:20:06.951Z,0.50
2023-05-02T15:22:35.151Z,0.73
2023-05-02T15:25:05.192Z,0.52
2023-05-02T15:27:33.910Z,0.70
2023-05-02T15:30:03.850Z,0.43
2023-05-02T15:32:32.313Z,0.40
2023-05-02T15:35:00.582Z,0.57
2023-05-02T15:37:28.785Z,0.43
2023-05-02T15:39:56.963Z,0.47
2023-05-02T15:42:25.766Z,0.55
2023-05-02T15:44:54.870Z,0.43
2023-05-02T15:47:23.313Z,0.43
2023-05-02T15:49:54.852Z,0.32
2023-05-02T15:52:23.210Z,0.43
2023-05-02T15:54:56.477Z,0.30
2023-05-02T15:57:24.704Z,0.28
2023-05-02T15:59:53.550Z,0.57
2023-05-02T16:02:22.634Z,0.30
2023-05-02T16:04:50.953Z,0.30
2023-05-02T16:07:19.193Z,0.28
2023-05-02T16:09:47.919Z,0.50
2023-05-02T16:12:16.333Z,0.20
2023-05-02T16:14:44.661Z,0.50
2023-05-02T16:17:12.909Z,0.35
2023-05-02T16:19:41.143Z,0.38
2023-05-02T16:22:09.503Z,0.55
2023-05-02T16:24:37.726Z,0.70
2023-05-02T16:27:05.999Z,0.35
2023-05-02T16:29:34.385Z,0.40
2023-05-02T16:32:02.601Z,0.30
2023-05-02T16:34:34.345Z,0.65
2023-05-02T16:37:03.887Z,0.40
2023-05-02T16:39:32.260Z,0.63
2023-05-02T16:42:00.664Z,0.50
2023-05-02T16:44:29.108Z,0.38
2023-05-02T16:46:57.355Z,0.50
2023-05-02T16:49:25.949Z,0.38
2023-05-02T16:51:55.646Z,0.30
2023-05-02T16:54:23.901Z,0.30
2023-05-02T16:56:52.319Z,0.47
2023-05-02T16:59:20.769Z,0.50
2023-05-02T17:01:49.065Z,0.45
2023-05-02T17:04:17.569Z,0.32
2023-05-02T17:06:46.373Z,0.40
2023-05-02T17:09:14.735Z,0.30
2023-05-02T17:11:43.226Z,0.30
2023-05-02T17:14:11.440Z,0.80
2023-05-02T17:16:40.612Z,0.32
2023-05-02T17:19:08.822Z,0.40
2023-05-02T17:21:37.627Z,0.40
2023-05-02T17:24:06.132Z,0.55
2023-05-02T17:26:34.653Z,0.40
2023-05-02T17:29:02.931Z,0.35
2023-05-02T17:31:31.330Z,0.55
2023-05-02T17:33:59.644Z,0.40
2023-05-02T17:36:28.736Z,0.30
2023-05-02T17:38:56.964Z,0.57
2023-05-02T17:41:25.222Z,0.30
2023-05-02T17:43:53.980Z,0.30
2023-05-02T17:46:22.540Z,0.40
2023-05-02T17:48:50.792Z,0.50
2023-05-02T17:51:19.000Z,0.38
2023-05-02T17:53:48.349Z,0.30
2023-05-02T17:56:19.503Z,0.30
2023-05-02T17:58:48.182Z,0.43
2023-05-02T18:01:16.541Z,0.30
2023-05-02T18:03:45.471Z,0.30
2023-05-02T18:06:18.096Z,0.40
2023-05-02T18:08:47.148Z,0.20
2023-05-02T18:11:17.448Z,0.32
2023-05-02T18:13:46.352Z,0.43
2023-05-02T18:16:14.771Z,0.40
2023-05-02T18:18:43.271Z,0.50
2023-05-02T18:21:12.424Z,0.30
2023-05-02T18:23:41.097Z,0.43
2023-05-02T18:26:15.940Z,0.30
2023-05-02T18:28:46.319Z,0.50
2023-05-02T18:31:19.289Z,0.30
2023-05-02T18:33:48.925Z,0.38
2023-05-02T18:36:22.278Z,0.20
2023-05-02T18:38:51.952Z,0.30
2023-05-02T18:41:21.051Z,0.40
2023-05-02T18:43:50.996Z,0.47
2023-05-02T18:46:20.764Z,0.50
2023-05-02T18:48:50.431Z,0.35
2023-05-02T18:51:20.212Z,0.30
2023-05-02T18:53:50.541Z,0.28
2023-05-02T18:56:20.078Z,0.20
2023-05-02T18:58:50.811Z,0.30
2023-05-02T19:01:23.779Z,0.30
2023-05-02T19:03:55.200Z,0.50
2023-05-02T19:06:24.570Z,0.43
2023-05-02T19:08:54.293Z,0.30
2023-05-02T19:11:24.240Z,0.50
2023-05-02T19:13:53.779Z,0.40
2023-05-02T19:16:27.076Z,0.45
2023-05-02T19:18:57.725Z,0.30
2023-05-02T19:21:27.315Z,0.40
2023-05-02T19:23:58.291Z,0.80
2023-05-02T19:26:27.771Z,0.50
2023-05-02T19:28:57.565Z,0.70
2023-05-02T19:31:26.422Z,0.70
2023-05-02T19:33:56.735Z,0.80
2023-05-02T19:36:26.474Z,0.40
2023-05-02T19:38:59.449Z,0.57
2023-05-02T19:41:29.082Z,0.43
2023-05-02T19:44:00.219Z,0.82
2023-05-02T19:46:31.634Z,0.57
2023-05-02T19:49:01.315Z,0.75
2023-05-02T19:51:31.135Z,0.60
2023-05-02T19:54:00.244Z,0.60
2023-05-02T19:56:30.313Z,0.70
2023-05-02T19:59:00.380Z,0.60
2023-05-02T20:01:32.310Z,0.52
2023-05-02T20:04:01.835Z,0.65
2023-05-02T20:06:32.677Z,0.65
2023-05-02T20:09:01.852Z,0.52
2023-05-02T20:11:32.418Z,0.60
2023-05-02T20:14:01.148Z,0.88
2023-05-02T20:16:32.126Z,0.70
2023-05-02T20:19:00.373Z,0.50
2023-05-02T20:21:28.650Z,0.70
2023-05-02T20:23:56.881Z,0.50
2023-05-02T20:26:25.101Z,0.52
2023-05-02T20:28:53.411Z,0.50
2023-05-02T20:31:21.710Z,0.57
2023-05-02T20:33:50.047Z,0.57
2023-05-02T20:36:19.005Z,0.60
2023-05-02T20:38:48.736Z,0.60
2023-05-02T20:41:17.019Z,0.43
2023-05-02T20:43:48.334Z,0.77
2023-05-02T20:46:20.917Z,0.60
2023-05-02T20:48:49.221Z,0.47
2023-05-02T20:51:17.520Z,0.68
2023-05-02T20:53:45.723Z,0.80
2023-05-02T20:56:13.987Z,0.82
2023-05-02T20:58:42.241Z,0.57
2023-05-02T21:01:10.606Z,0.30
2023-05-02T21:03:41.593Z,0.60
2023-05-02T21:06:10.110Z,0.50
2023-05-02T21:08:38.462Z,0.50
2023-05-02T21:11:16.891Z,0.43
2023-05-02T21:13:45.253Z,0.73
2023-05-02T21:16:21.517Z,0.43
2023-05-02T21:18:49.974Z,0.55
2023-05-02T21:21:18.506Z,0.50
2023-05-02T21:23:46.872Z,0.60
2023-05-02T21:26:15.109Z,1.00
2023-05-02T21:28:43.370Z,0.60
2023-05-02T21:31:12.550Z,0.63
2023-05-02T21:33:42.227Z,0.60
2023-05-02T21:36:11.129Z,0.52
2023-05-02T21:38:39.318Z,0.57
2023-05-02T21:41:08.129Z,0.68
2023-05-02T21:43:39.647Z,0.40
2023-05-02T21:46:07.861Z,0.50
2023-05-02T21:48:36.420Z,0.70
2023-05-02T21:51:12.352Z,0.60
2023-05-02T21:53:40.794Z,0.60
2023-05-02T21:56:09.854Z,0.50
2023-05-02T21:58:38.317Z,0.65
2023-05-02T22:01:06.891Z,0.85
2023-05-02T22:03:35.479Z,0.60
2023-05-02T22:06:06.935Z,0.38
2023-05-02T22:08:35.568Z,0.60
2023-05-02T22:11:08.943Z,0.70
2023-05-02T22:13:37.761Z,0.50
2023-05-02T22:16:06.544Z,0.60
2023-05-02T22:18:34.819Z,0.47
2023-05-02T22:21:03.262Z,0.40
2023-05-02T22:23:31.864Z,0.45
2023-05-02T22:26:00.218Z,0.40
2023-05-02T22:28:28.617Z,0.50
2023-05-02T22:30:56.807Z,0.50
2023-05-02T22:33:25.130Z,0.50
2023-05-02T22:35:53.513Z,0.60
2023-05-02T22:38:21.762Z,0.90
2023-05-02T22:40:49.975Z,0.52
2023-05-02T22:43:18.527Z,0.55
2023-05-02T22:45:47.287Z,0.70
2023-05-02T22:48:15.557Z,0.60
2023-05-02T22:50:44.233Z,0.60
2023-05-02T22:53:12.440Z,0.63
2023-05-02T22:55:40.763Z,0.68
2023-05-02T22:58:09.151Z,0.60
2023-05-02T23:00:37.431Z,0.50
2023-05-02T23:03:05.672Z,0.60
2023-05-02T23:05:33.934Z,0.70
2023-05-02T23:08:02.200Z,0.50
2023-05-02T23:10:30.429Z,0.60
2023-05-02T23:12:58.648Z,0.52
2023-05-02T23:15:26.841Z,0.57
2023-05-02T23:17:55.173Z,0.50
2023-05-02T23:20:24.037Z,0.50
2023-05-02T23:22:52.425Z,0.40
2023-05-02T23:25:21.463Z,0.75
2023-05-02T23:27:49.899Z,0.40
2023-05-02T23:30:18.209Z,0.40
2023-05-02T23:32:47.648Z,0.80
2023-05-02T23:35:15.943Z,0.70
2023-05-02T23:37:44.978Z,0.50
2023-05-02T23:40:13.541Z,0.60
2023-05-02T23:42:42.121Z,0.57
2023-05-02T23:45:10.983Z,0.55
2023-05-02T23:47:39.531Z,0.40
2023-05-02T23:50:08.638Z,0.60
2023-05-02T23:52:36.889Z,0.50
2023-05-02T23:55:11.098Z,0.57
2023-05-02T23:57:39.432Z,0.60
